Time;durP1;ratioP1;P1;durP2;ratioP2;P2;SDS_P1;SDS_P2;PMS_P1;PMS_P2;Temp;Humidity;BMP_temperature;BMP_pressure;BME280_temperature;BME280_humidity;BME280_pressure;Samples;Min_cycle;Max_cycle;Signal;HPM_P1;HPM_P2
2021/03/02 06:54:53;;;;;;;55.63;27.20;;;;;;;;;;5524862;22;20084;-66
2021/03/02 06:57:22;;;;;;;53.25;26.50;;;;;;;;;;5034365;28;20041;-66
2021/03/02 07:00:00;;;;;;;49.65;26.05;;;;;;;;;;5034005;28;20026;-66
2021/03/02 07:02:35;;;;;;;49.22;25.70;;;;;;;;;;5016199;28;20052;-65
2021/03/02 07:05:19;;;;;;;47.92;25.27;;;;;;;;;;5033879;28;20395;-67
2021/03/02 07:07:55;;;;;;;46.97;24.38;;;;;;;;;;5034198;28;20071;-63
2021/03/02 07:10:21;;;;;;;51.08;25.17;;;;;;;;;;5034122;28;20432;-64
2021/03/02 07:12:47;;;;;;;46.70;22.92;;;;;;;;;;5016398;28;20403;-66
2021/03/02 07:15:17;;;;;;;45.50;23.25;;;;;;;;;;5034038;28;20077;-65
2021/03/02 07:17:44;;;;;;;44.83;22.45;;;;;;;;;;5033702;28;20017;-63
2021/03/02 07:20:11;;;;;;;42.10;21.95;;;;;;;;;;5033923;28;20065;-65
2021/03/02 07:22:40;;;;;;;48.92;22.55;;;;;;;;;;5034027;28;20025;-66
2021/03/02 07:25:11;;;;;;;44.85;23.05;;;;;;;;;;5016575;28;20025;-66
2021/03/02 07:27:41;;;;;;;47.03;23.90;;;;;;;;;;5030746;28;20076;-64
2021/03/02 07:30:09;;;;;;;46.13;23.05;;;;;;;;;;5033054;28;20367;-65
2021/03/02 07:32:36;;;;;;;42.63;23.25;;;;;;;;;;5033646;28;20032;-64
2021/03/02 07:35:02;;;;;;;46.33;24.17;;;;;;;;;;5033665;28;20132;-63
2021/03/02 07:37:28;;;;;;;51.25;26.08;;;;;;;;;;5033459;28;20029;-66
2021/03/02 07:40:05;;;;;;;47.88;25.23;;;;;;;;;;5033847;28;20372;-63
2021/03/02 07:42:31;;;;;;;43.85;24.52;;;;;;;;;;5033604;28;20056;-67
2021/03/02 07:45:11;;;;;;;45.13;23.58;;;;;;;;;;5033316;28;20032;-65
2021/03/02 07:47:49;;;;;;;46.70;24.88;;;;;;;;;;5038094;28;20017;-64
2021/03/02 07:50:26;;;;;;;46.60;24.15;;;;;;;;;;5037326;28;20485;-66
2021/03/02 07:53:11;;;;;;;45.33;24.23;;;;;;;;;;5037705;28;20116;-65
2021/03/02 07:55:37;;;;;;;44.47;24.58;;;;;;;;;;5037011;28;20133;-63
2021/03/02 07:58:13;;;;;;;51.85;26.15;;;;;;;;;;5019772;28;20036;-64
2021/03/02 08:00:39;;;;;;;49.30;26.70;;;;;;;;;;5037552;28;20030;-65
2021/03/02 08:03:33;;;;;;;51.83;28.02;;;;;;;;;;5037714;28;20032;-62
2021/03/02 08:06:00;;;;;;;55.35;27.30;;;;;;;;;;5033940;28;20033;-65
2021/03/02 08:08:26;;;;;;;54.30;28.83;;;;;;;;;;5037533;28;20116;-63
2021/03/02 08:10:53;;;;;;;50.30;26.50;;;;;;;;;;5037297;28;20025;-64
2021/03/02 08:13:31;;;;;;;54.97;28.63;;;;;;;;;;5036973;28;20026;-62
2021/03/02 08:15:58;;;;;;;55.00;29.50;;;;;;;;;;5037244;28;20037;-64
2021/03/02 08:18:34;;;;;;;60.40;32.78;;;;;;;;;;5036516;28;20029;-63
2021/03/02 08:21:09;;;;;;;61.38;32.13;;;;;;;;;;5036610;28;20026;-62
2021/03/02 08:23:52;;;;;;;63.22;32.88;;;;;;;;;;5035315;28;20025;-63
2021/03/02 08:26:31;;;;;;;64.28;30.65;;;;;;;;;;5035875;28;20021;-63
2021/03/02 08:29:05;;;;;;;66.53;34.85;;;;;;;;;;5036212;28;20029;-62
2021/03/02 08:31:31;;;;;;;62.85;32.55;;;;;;;;;;5018859;28;20029;-63
2021/03/02 08:34:01;;;;;;;49.97;26.35;;;;;;;;;;5036354;28;20033;-63
2021/03/02 08:36:27;;;;;;;52.20;28.85;;;;;;;;;;5036530;28;20020;-62
2021/03/02 08:38:53;;;;;;;82.55;45.00;;;;;;;;;;5036513;28;20029;-62
2021/03/02 08:41:36;;;;;;;63.15;34.80;;;;;;;;;;5036335;28;20021;-62
2021/03/02 08:44:02;;;;;;;;;;;;;;;;;;5037236;28;20472;-62
2021/03/02 08:46:32;;;;;;;49.08;27.85;;;;;;;;;;5035965;28;19905;-62
2021/03/02 08:48:58;;;;;;;55.17;28.17;;;;;;;;;;5036772;28;20034;-62
2021/03/02 08:51:25;;;;;;;56.58;29.50;;;;;;;;;;5036464;28;20029;-63
2021/03/02 08:53:52;;;;;;;53.10;26.98;;;;;;;;;;5036230;28;20060;-63
2021/03/02 08:56:23;;;;;;;46.30;26.63;;;;;;;;;;5018301;28;20431;-62
2021/03/02 08:58:53;;;;;;;49.00;25.93;;;;;;;;;;5036045;28;20483;-63
2021/03/02 09:01:23;;;;;;;48.53;25.90;;;;;;;;;;5035962;28;20795;-62
2021/03/02 09:03:50;;;;;;;53.35;28.40;;;;;;;;;;5036411;28;20097;-62
2021/03/02 09:06:18;;;;;;;54.60;26.98;;;;;;;;;;5036037;28;20377;-63
2021/03/02 09:08:47;;;;;;;49.55;26.67;;;;;;;;;;5018127;28;20033;-63
2021/03/02 09:11:14;;;;;;;52.78;28.30;;;;;;;;;;5035844;28;20021;-64
2021/03/02 09:13:41;;;;;;;55.53;31.08;;;;;;;;;;5032871;28;20052;-62
2021/03/02 09:16:27;;;;;;;58.63;29.77;;;;;;;;;;5030518;28;20091;-63
2021/03/02 09:19:02;;;;;;;53.55;30.33;;;;;;;;;;5035120;28;20025;-63
2021/03/02 09:21:28;;;;;;;56.45;29.77;;;;;;;;;;5019246;28;20029;-62
2021/03/02 09:23:55;;;;;;;55.50;30.25;;;;;;;;;;5029615;28;20629;-63
2021/03/02 09:26:24;;;;;;;60.00;29.20;;;;;;;;;;5026518;28;20014;-62
2021/03/02 09:28:54;;;;;;;58.92;30.33;;;;;;;;;;5025373;28;20156;-63
2021/03/02 09:31:20;;;;;;;53.17;28.55;;;;;;;;;;5036101;28;20037;-64
2021/03/02 09:33:49;;;;;;;56.97;29.05;;;;;;;;;;5032226;28;20408;-62
2021/03/02 09:36:15;;;;;;;56.08;28.27;;;;;;;;;;5032793;28;20026;-64
2021/03/02 09:38:41;;;;;;;54.30;29.90;;;;;;;;;;5025161;28;20022;-63
2021/03/02 09:41:07;;;;;;;54.83;28.02;;;;;;;;;;5023508;28;20033;-63
2021/03/02 09:43:38;;;;;;;48.78;25.70;;;;;;;;;;5025692;28;20033;-63
2021/03/02 09:46:04;;;;;;;41.33;22.55;;;;;;;;;;5023885;28;20125;-62
2021/03/02 09:48:46;;;;;;;42.03;22.95;;;;;;;;;;5023727;28;20033;-64
2021/03/02 09:51:28;;;;;;;37.60;21.20;;;;;;;;;;5025980;28;20503;-64
2021/03/02 09:54:09;;;;;;;42.90;20.67;;;;;;;;;;5018751;28;20033;-63
2021/03/02 09:56:35;;;;;;;35.25;21.30;;;;;;;;;;5028249;28;20046;-62
2021/03/02 09:59:01;;;;;;;39.15;21.77;;;;;;;;;;5031853;28;20057;-63
2021/03/02 10:01:27;;;;;;;37.75;21.77;;;;;;;;;;5034660;28;20105;-63
2021/03/02 10:03:53;;;;;;;36.38;19.70;;;;;;;;;;5045756;28;20479;-63
2021/03/02 10:06:25;;;;;;;34.90;20.30;;;;;;;;;;5055037;28;20376;-63
2021/03/02 10:08:52;;;;;;;31.02;16.75;;;;;;;;;;5040630;28;20112;-63
2021/03/02 10:11:21;;;;;;;30.40;16.33;;;;;;;;;;5017010;28;20028;-63
2021/03/02 10:13:47;;;;;;;29.90;17.73;;;;;;;;;;5034575;28;20022;-62
2021/03/02 10:16:16;;;;;;;31.35;18.42;;;;;;;;;;5029752;28;20106;-61
2021/03/02 10:18:50;;;;;;;31.08;16.92;;;;;;;;;;5012615;28;20040;-62
2021/03/02 10:21:17;;;;;;;32.67;19.05;;;;;;;;;;5014444;28;20025;-62
2021/03/02 10:23:44;;;;;;;25.92;16.27;;;;;;;;;;5006632;28;20424;-62
2021/03/02 10:26:10;;;;;;;27.40;13.80;;;;;;;;;;5022869;28;20026;-65
2021/03/02 10:28:37;;;;;;;21.30;12.63;;;;;;;;;;5033373;28;20380;-62
2021/03/02 10:31:03;;;;;;;20.83;12.35;;;;;;;;;;5032726;28;20030;-64
2021/03/02 10:33:29;;;;;;;19.38;11.25;;;;;;;;;;5034231;28;20388;-63
2021/03/02 10:35:58;;;;;;;25.42;14.18;;;;;;;;;;5034312;28;20025;-68
2021/03/02 10:38:24;;;;;;;26.55;13.55;;;;;;;;;;5034339;28;20026;-62
2021/03/02 10:40:51;;;;;;;19.92;10.65;;;;;;;;;;5034423;28;20025;-63
2021/03/02 10:43:17;;;;;;;22.50;13.35;;;;;;;;;;5033454;28;20033;-63
2021/03/02 10:45:43;;;;;;;22.15;12.30;;;;;;;;;;5033938;28;20021;-64
2021/03/02 10:48:09;;;;;;;28.60;14.63;;;;;;;;;;5033343;28;20025;-62
2021/03/02 10:50:35;;;;;;;23.52;13.18;;;;;;;;;;5033591;28;20425;-62
2021/03/02 10:53:01;;;;;;;19.40;10.50;;;;;;;;;;5033946;28;20030;-62
2021/03/02 10:55:27;;;;;;;19.70;10.20;;;;;;;;;;5033913;28;20087;-62
2021/03/02 10:57:54;;;;;;;17.98;9.85;;;;;;;;;;5034184;28;20075;-62
2021/03/02 11:00:20;;;;;;;25.23;16.00;;;;;;;;;;5032624;28;20029;-64
2021/03/02 11:02:46;;;;;;;18.02;10.30;;;;;;;;;;5034346;28;20022;-63
2021/03/02 11:05:12;;;;;;;18.35;9.27;;;;;;;;;;5027543;28;20033;-61
2021/03/02 11:07:39;;;;;;;15.00;8.18;;;;;;;;;;5018612;28;20029;-62
2021/03/02 11:10:07;;;;;;;16.45;8.88;;;;;;;;;;5023055;28;20079;-64
2021/03/02 11:12:33;;;;;;;17.25;9.20;;;;;;;;;;5021643;28;20018;-62
2021/03/02 11:14:59;;;;;;;14.20;8.68;;;;;;;;;;5023268;28;20022;-63
2021/03/02 11:17:26;;;;;;;16.70;8.82;;;;;;;;;;5023477;28;20469;-63
2021/03/02 11:19:52;;;;;;;16.33;7.85;;;;;;;;;;5021535;28;20037;-62
2021/03/02 11:22:18;;;;;;;15.02;8.25;;;;;;;;;;5013561;28;20028;-62
2021/03/02 11:24:44;;;;;;;13.77;7.50;;;;;;;;;;5021260;28;20025;-62
2021/03/02 11:27:10;;;;;;;14.50;7.97;;;;;;;;;;5022423;28;20029;-65
2021/03/02 11:29:39;;;;;;;14.25;7.75;;;;;;;;;;5021803;28;20083;-64
2021/03/02 11:32:07;;;;;;;17.52;8.77;;;;;;;;;;5022298;28;20037;-64
2021/03/02 11:34:41;;;;;;;16.40;9.07;;;;;;;;;;5021932;28;20093;-62
2021/03/02 11:37:12;;;;;;;15.95;8.20;;;;;;;;;;5021576;28;20097;-66
2021/03/02 11:39:39;;;;;;;15.63;8.30;;;;;;;;;;5032904;28;20035;-64
2021/03/02 11:42:05;;;;;;;15.93;8.65;;;;;;;;;;5033211;28;20022;-62
2021/03/02 11:44:31;;;;;;;18.35;9.48;;;;;;;;;;5018231;28;20029;-63
2021/03/02 11:46:57;;;;;;;14.95;8.75;;;;;;;;;;5020286;28;20027;-63
2021/03/02 11:49:24;;;;;;;15.85;8.43;;;;;;;;;;5024547;28;20029;-62
2021/03/02 11:51:50;;;;;;;15.80;8.55;;;;;;;;;;5028816;28;20029;-62
2021/03/02 11:54:16;;;;;;;19.50;9.15;;;;;;;;;;5019264;28;20381;-62
2021/03/02 11:56:42;;;;;;;22.40;12.45;;;;;;;;;;5024926;28;20037;-61
2021/03/02 11:59:08;;;;;;;17.70;8.57;;;;;;;;;;5019720;28;20470;-63
2021/03/02 12:01:34;;;;;;;15.13;8.45;;;;;;;;;;5031686;28;20025;-62
2021/03/02 12:04:00;;;;;;;16.77;9.93;;;;;;;;;;5019691;28;20025;-63
2021/03/02 12:06:27;;;;;;;24.52;16.63;;;;;;;;;;5017330;28;20065;-62
2021/03/02 12:08:53;;;;;;;19.75;10.48;;;;;;;;;;5024807;28;20032;-62
2021/03/02 12:11:19;;;;;;;18.73;10.00;;;;;;;;;;5021252;28;20029;-62
2021/03/02 12:13:45;;;;;;;16.38;8.95;;;;;;;;;;5029869;28;20114;-64
2021/03/02 12:16:11;;;;;;;15.98;8.95;;;;;;;;;;5031585;28;20055;-62
2021/03/02 12:18:37;;;;;;;17.83;9.95;;;;;;;;;;5031389;28;20083;-62
2021/03/02 12:21:04;;;;;;;17.60;9.50;;;;;;;;;;5031520;28;20101;-62
2021/03/02 12:23:30;;;;;;;23.50;11.35;;;;;;;;;;5030695;28;20515;-62
2021/03/02 12:25:56;;;;;;;21.88;10.70;;;;;;;;;;5032574;28;20040;-63
2021/03/02 12:28:22;;;;;;;18.55;9.30;;;;;;;;;;5032899;28;20026;-61
2021/03/02 12:30:48;;;;;;;18.77;11.25;;;;;;;;;;5032811;28;20044;-64
2021/03/02 12:33:14;;;;;;;19.65;10.95;;;;;;;;;;5036159;28;20029;-63
2021/03/02 12:35:40;;;;;;;15.50;8.88;;;;;;;;;;5037023;28;20032;-63
2021/03/02 12:38:06;;;;;;;18.63;9.55;;;;;;;;;;5036868;28;20117;-63
2021/03/02 12:40:33;;;;;;;18.25;9.73;;;;;;;;;;5036880;28;20113;-62
2021/03/02 12:42:59;;;;;;;19.00;10.15;;;;;;;;;;5036982;28;20034;-61
2021/03/02 12:45:25;;;;;;;17.13;9.93;;;;;;;;;;5036364;28;20021;-62
2021/03/02 12:47:51;;;;;;;16.05;9.05;;;;;;;;;;5036795;28;20361;-62
2021/03/02 12:50:17;;;;;;;18.40;10.18;;;;;;;;;;5036323;28;20033;-62
2021/03/02 12:52:44;;;;;;;15.02;9.15;;;;;;;;;;5036465;28;20081;-63
2021/03/02 12:55:10;;;;;;;22.30;11.50;;;;;;;;;;5018549;28;20372;-62
2021/03/02 12:57:37;;;;;;;17.17;8.40;;;;;;;;;;5019335;28;20053;-62
2021/03/02 13:00:07;;;;;;;20.92;10.75;;;;;;;;;;5036045;28;20032;-62
2021/03/02 13:02:36;;;;;;;21.70;10.48;;;;;;;;;;5036348;28;20021;-62
2021/03/02 13:05:03;;;;;;;21.83;13.32;;;;;;;;;;5018614;28;20017;-63
2021/03/02 13:07:29;;;;;;;21.50;12.27;;;;;;;;;;5036152;28;20025;-63
2021/03/02 13:09:57;;;;;;;18.50;10.55;;;;;;;;;;5036200;28;20103;-63
2021/03/02 13:12:23;;;;;;;22.80;12.43;;;;;;;;;;5035866;28;20025;-62
2021/03/02 13:14:49;;;;;;;18.25;9.75;;;;;;;;;;5036064;28;20072;-61
2021/03/02 13:17:16;;;;;;;23.48;11.63;;;;;;;;;;5035863;28;20096;-61
2021/03/02 13:19:43;;;;;;;20.73;11.70;;;;;;;;;;5014924;28;20030;-65
2021/03/02 13:22:09;;;;;;;18.05;10.48;;;;;;;;;;5032871;28;20037;-64
2021/03/02 13:24:35;;;;;;;18.65;10.80;;;;;;;;;;5035911;28;20021;-61
2021/03/02 13:27:02;;;;;;;18.17;10.00;;;;;;;;;;5031944;28;20041;-61
2021/03/02 13:29:28;;;;;;;19.13;10.68;;;;;;;;;;5015673;28;20037;-61
2021/03/02 13:31:56;;;;;;;23.17;13.25;;;;;;;;;;5016029;28;20108;-62
2021/03/02 13:34:24;;;;;;;23.23;13.00;;;;;;;;;;5015572;28;20366;-63
2021/03/02 13:36:50;;;;;;;17.70;9.48;;;;;;;;;;5016506;28;20369;-61
2021/03/02 13:39:18;;;;;;;17.90;10.02;;;;;;;;;;5022346;28;20030;-63
2021/03/02 13:41:48;;;;;;;16.13;9.70;;;;;;;;;;5020749;28;20022;-62
2021/03/02 13:44:16;;;;;;;17.85;9.50;;;;;;;;;;5015703;28;20107;-63
2021/03/02 13:46:44;;;;;;;16.35;8.88;;;;;;;;;;5015602;28;20101;-63
2021/03/02 13:49:10;;;;;;;20.63;10.02;;;;;;;;;;5033062;28;20033;-62
2021/03/02 13:51:37;;;;;;;26.33;14.02;;;;;;;;;;5023211;28;20477;-62
2021/03/02 13:54:03;;;;;;;22.08;11.18;;;;;;;;;;5020237;28;20061;-62
2021/03/02 13:56:29;;;;;;;20.70;11.38;;;;;;;;;;5015158;28;20531;-63
2021/03/02 13:58:56;;;;;;;24.38;13.25;;;;;;;;;;5014980;28;20036;-64
2021/03/02 14:01:23;;;;;;;20.02;11.57;;;;;;;;;;5025808;28;20037;-62
2021/03/02 14:03:51;;;;;;;29.60;15.77;;;;;;;;;;5035284;28;20116;-63
2021/03/02 14:06:17;;;;;;;90.03;42.30;;;;;;;;;;5035742;28;20064;-61
2021/03/02 14:08:43;;;;;;;21.75;13.40;;;;;;;;;;5034539;28;20033;-62
2021/03/02 14:11:11;;;;;;;21.08;12.20;;;;;;;;;;5034961;28;20025;-62
2021/03/02 14:13:37;;;;;;;21.63;11.93;;;;;;;;;;5034303;28;20044;-63
2021/03/02 14:16:05;;;;;;;26.70;14.77;;;;;;;;;;5034667;28;20029;-62
2021/03/02 14:18:31;;;;;;;20.38;9.85;;;;;;;;;;5034039;28;20071;-65
2021/03/02 14:20:58;;;;;;;18.73;10.55;;;;;;;;;;5018603;28;20032;-63
2021/03/02 14:23:24;;;;;;;21.85;12.57;;;;;;;;;;5021805;28;20026;-61
2021/03/02 14:25:51;;;;;;;18.25;10.43;;;;;;;;;;5015899;28;20465;-63
2021/03/02 14:28:17;;;;;;;20.98;10.80;;;;;;;;;;5026182;28;20030;-65
2021/03/02 14:30:45;;;;;;;19.42;10.40;;;;;;;;;;5025730;28;20105;-65
2021/03/02 14:33:12;;;;;;;19.85;10.57;;;;;;;;;;5024570;28;20017;-62
2021/03/02 14:35:38;;;;;;;17.80;10.55;;;;;;;;;;5023118;28;20030;-64
2021/03/02 14:38:05;;;;;;;19.90;10.77;;;;;;;;;;5017777;28;20069;-62
2021/03/02 14:40:31;;;;;;;16.13;9.75;;;;;;;;;;5025306;28;20028;-63
2021/03/02 14:43:01;;;;;;;63.38;31.63;;;;;;;;;;5032205;28;20045;-62
2021/03/02 14:45:39;;;;;;;21.63;12.80;;;;;;;;;;5027904;28;20025;-61
2021/03/02 14:48:19;;;;;;;21.92;12.48;;;;;;;;;;5020518;28;20080;-63
2021/03/02 14:50:46;;;;;;;17.50;9.80;;;;;;;;;;5022415;28;20041;-64
2021/03/02 14:53:13;;;;;;;19.80;9.98;;;;;;;;;;5021235;28;20026;-63
2021/03/02 14:55:43;;;;;;;17.13;9.75;;;;;;;;;;5016459;28;20057;-62
2021/03/02 14:58:09;;;;;;;18.05;9.63;;;;;;;;;;5014499;28;20034;-62
2021/03/02 15:00:36;;;;;;;18.85;9.80;;;;;;;;;;5012949;28;20048;-64
2021/03/02 15:03:02;;;;;;;18.48;10.35;;;;;;;;;;5023066;28;20381;-66
2021/03/02 15:05:29;;;;;;;18.92;10.10;;;;;;;;;;5026390;28;20033;-67
2021/03/02 15:07:55;;;;;;;16.45;9.65;;;;;;;;;;5031267;28;20048;-66
2021/03/02 15:10:21;;;;;;;18.88;9.95;;;;;;;;;;5017711;28;20029;-67
2021/03/02 15:12:48;;;;;;;20.75;10.18;;;;;;;;;;5025083;28;20087;-67
2021/03/02 15:15:15;;;;;;;17.38;10.02;;;;;;;;;;5034327;28;20036;-66
2021/03/02 15:17:41;;;;;;;21.17;10.38;;;;;;;;;;5033871;28;20025;-64
2021/03/02 15:20:16;;;;;;;17.25;9.52;;;;;;;;;;5024567;28;20105;-63
2021/03/02 15:22:43;;;;;;;19.13;9.93;;;;;;;;;;5022758;28;20490;-65
2021/03/02 15:25:12;;;;;;;17.67;9.38;;;;;;;;;;5019972;28;20424;-63
2021/03/02 15:27:41;;;;;;;23.95;11.85;;;;;;;;;;5013993;28;20028;-64
2021/03/02 15:30:09;;;;;;;19.95;9.75;;;;;;;;;;5027695;28;20047;-64
2021/03/02 15:32:36;;;;;;;20.05;10.68;;;;;;;;;;5033034;28;20470;-64
2021/03/02 15:35:05;;;;;;;19.77;9.90;;;;;;;;;;5025089;28;20014;-64
2021/03/02 15:37:32;;;;;;;21.95;11.25;;;;;;;;;;5027654;28;20053;-64
2021/03/02 15:39:58;;;;;;;18.25;10.60;;;;;;;;;;5027567;28;20113;-66
2021/03/02 15:42:25;;;;;;;30.10;15.50;;;;;;;;;;5031257;28;20029;-66
2021/03/02 15:44:51;;;;;;;25.35;13.57;;;;;;;;;;5031950;28;20033;-65
2021/03/02 15:47:17;;;;;;;21.73;11.88;;;;;;;;;;5029771;28;20022;-65
2021/03/02 15:49:43;;;;;;;24.52;10.52;;;;;;;;;;5029859;28;20080;-65
2021/03/02 15:52:10;;;;;;;22.42;12.82;;;;;;;;;;5029508;28;20030;-65
2021/03/02 15:54:37;;;;;;;22.02;12.07;;;;;;;;;;5028830;28;20021;-64
2021/03/02 15:57:03;;;;;;;26.75;14.93;;;;;;;;;;5030194;28;20041;-65
2021/03/02 15:59:29;;;;;;;30.75;16.83;;;;;;;;;;5031151;28;20037;-64
2021/03/02 16:01:55;;;;;;;26.00;15.60;;;;;;;;;;5032161;28;20029;-66
2021/03/02 16:04:40;;;;;;;25.10;13.55;;;;;;;;;;5033036;28;20022;-67
2021/03/02 16:07:12;;;;;;;30.60;16.83;;;;;;;;;;5033157;28;20083;-67
2021/03/02 16:09:41;;;;;;;27.92;13.88;;;;;;;;;;5036609;28;20065;-66
2021/03/02 16:12:08;;;;;;;26.55;15.57;;;;;;;;;;5036885;28;20059;-67
2021/03/02 16:14:35;;;;;;;26.70;14.63;;;;;;;;;;5036537;28;20021;-65
2021/03/02 16:17:07;;;;;;;27.60;14.95;;;;;;;;;;5019485;28;20345;-65
2021/03/02 16:19:38;;;;;;;33.47;16.88;;;;;;;;;;5035772;28;20476;-66
2021/03/02 16:22:05;;;;;;;33.33;19.70;;;;;;;;;;5036857;28;20475;-65
2021/03/02 16:24:33;;;;;;;33.67;18.70;;;;;;;;;;5036350;28;20033;-64
2021/03/02 16:27:00;;;;;;;30.77;16.70;;;;;;;;;;5036718;28;20075;-67
2021/03/02 16:29:29;;;;;;;28.50;16.10;;;;;;;;;;5018699;28;20030;-66
2021/03/02 16:31:56;;;;;;;31.98;18.13;;;;;;;;;;5007629;28;20032;-65
2021/03/02 16:34:25;;;;;;;30.50;16.42;;;;;;;;;;5036893;28;20025;-65
2021/03/02 16:36:51;;;;;;;34.65;17.95;;;;;;;;;;5032568;28;20033;-64
2021/03/02 16:39:18;;;;;;;59.72;26.23;;;;;;;;;;5033943;28;20080;-66
2021/03/02 16:41:45;;;;;;;49.42;22.48;;;;;;;;;;5033998;28;20025;-65
2021/03/02 16:44:11;;;;;;;36.92;17.90;;;;;;;;;;5031935;28;20080;-65
2021/03/02 16:46:38;;;;;;;48.28;23.50;;;;;;;;;;5036723;28;20082;-67
2021/03/02 16:49:10;;;;;;;38.00;20.15;;;;;;;;;;5036191;28;20021;-65
2021/03/02 16:51:45;;;;;;;53.20;26.33;;;;;;;;;;5036333;28;20053;-67
2021/03/02 16:54:12;;;;;;;32.92;16.73;;;;;;;;;;5023733;28;20026;-64
2021/03/02 16:56:44;;;;;;;55.33;26.20;;;;;;;;;;5016200;28;20109;-64
2021/03/02 16:59:10;;;;;;;59.92;27.55;;;;;;;;;;5023133;28;20033;-66
2021/03/02 17:01:42;;;;;;;73.05;32.83;;;;;;;;;;5033003;28;20469;-65
2021/03/02 17:04:11;;;;;;;54.63;25.98;;;;;;;;;;5029430;28;20030;-64
2021/03/02 17:06:42;;;;;;;60.70;28.73;;;;;;;;;;5031175;28;20026;-64
2021/03/02 17:09:09;;;;;;;123.55;64.07;;;;;;;;;;5027367;28;20049;-64
2021/03/02 17:11:35;;;;;;;75.95;38.60;;;;;;;;;;5021893;28;20025;-63
2021/03/02 17:14:03;;;;;;;38.72;21.35;;;;;;;;;;5025735;28;20026;-65
2021/03/02 17:16:29;;;;;;;51.13;27.60;;;;;;;;;;5024343;28;20076;-66
2021/03/02 17:18:55;;;;;;;60.10;30.50;;;;;;;;;;5025138;28;20048;-67
2021/03/02 17:21:21;;;;;;;47.10;23.75;;;;;;;;;;5025310;28;20096;-66
2021/03/02 17:23:47;;;;;;;33.92;17.50;;;;;;;;;;5028125;28;20499;-66
2021/03/02 17:26:17;;;;;;;39.17;21.40;;;;;;;;;;5031902;28;20087;-68
2021/03/02 17:28:43;;;;;;;43.70;22.90;;;;;;;;;;5028398;28;20084;-66
2021/03/02 17:31:09;;;;;;;37.33;18.42;;;;;;;;;;5025640;28;20025;-67
2021/03/02 17:33:35;;;;;;;42.30;22.45;;;;;;;;;;5026076;28;20022;-65
2021/03/02 17:36:01;;;;;;;41.83;23.15;;;;;;;;;;5036063;28;20022;-65
2021/03/02 17:38:27;;;;;;;47.70;25.70;;;;;;;;;;5025650;28;20042;-66
2021/03/02 17:41:04;;;;;;;45.05;22.23;;;;;;;;;;5032324;28;20061;-69
2021/03/02 17:43:30;;;;;;;43.50;22.90;;;;;;;;;;5016915;28;20049;-64
2021/03/02 17:45:56;;;;;;;64.20;34.38;;;;;;;;;;5020465;28;20376;-64
2021/03/02 17:48:23;;;;;;;49.42;25.65;;;;;;;;;;5015358;28;20022;-65
2021/03/02 17:50:49;;;;;;;41.33;20.48;;;;;;;;;;5015633;28;20034;-65
2021/03/02 17:53:16;;;;;;;36.92;20.05;;;;;;;;;;5023982;28;20120;-65
2021/03/02 17:55:42;;;;;;;41.17;20.08;;;;;;;;;;5023662;28;20073;-67
2021/03/02 17:58:08;;;;;;;51.90;21.15;;;;;;;;;;5025524;28;20381;-66
2021/03/02 18:00:34;;;;;;;41.67;21.77;;;;;;;;;;5024483;28;20043;-66
2021/03/02 18:03:00;;;;;;;49.13;26.63;;;;;;;;;;5025821;28;20349;-65
2021/03/02 18:05:26;;;;;;;44.00;22.70;;;;;;;;;;5024939;28;20022;-66
2021/03/02 18:07:52;;;;;;;48.83;24.35;;;;;;;;;;5025733;28;20156;-66
2021/03/02 18:10:19;;;;;;;50.83;24.35;;;;;;;;;;5029086;28;20034;-69
2021/03/02 18:12:45;;;;;;;45.85;23.55;;;;;;;;;;5014176;28;20080;-68
2021/03/02 18:15:11;;;;;;;46.50;23.08;;;;;;;;;;5027399;28;20350;-66
2021/03/02 18:17:37;;;;;;;51.78;26.25;;;;;;;;;;5022472;28;20540;-66
2021/03/02 18:20:05;;;;;;;49.92;25.25;;;;;;;;;;5021829;28;20060;-65
2021/03/02 18:22:31;;;;;;;51.60;27.15;;;;;;;;;;5023349;28;20110;-68
2021/03/02 18:24:57;;;;;;;54.90;27.85;;;;;;;;;;5021729;28;20026;-67
2021/03/02 18:27:23;;;;;;;65.80;31.38;;;;;;;;;;5005166;28;20033;-66
2021/03/02 18:29:49;;;;;;;63.40;31.80;;;;;;;;;;5023738;28;20041;-67
2021/03/02 18:32:15;;;;;;;64.78;32.45;;;;;;;;;;5024299;28;20033;-66
2021/03/02 18:34:41;;;;;;;63.65;32.22;;;;;;;;;;5019590;28;20026;-65
2021/03/02 18:37:07;;;;;;;62.25;32.80;;;;;;;;;;5025917;28;20357;-64
2021/03/02 18:39:33;;;;;;;69.18;34.17;;;;;;;;;;5027096;28;20528;-66
2021/03/02 18:41:59;;;;;;;69.35;34.75;;;;;;;;;;5026218;28;20071;-65
2021/03/02 18:44:27;;;;;;;65.05;33.40;;;;;;;;;;5026637;28;20469;-66
2021/03/02 18:46:53;;;;;;;70.80;36.85;;;;;;;;;;5026772;28;20080;-66
2021/03/02 18:49:19;;;;;;;70.57;36.33;;;;;;;;;;5026009;28;20029;-66
2021/03/02 18:51:45;;;;;;;67.72;34.50;;;;;;;;;;5023780;28;20104;-72
2021/03/02 18:54:13;;;;;;;72.03;36.85;;;;;;;;;;5022506;28;20053;-66
2021/03/02 18:56:39;;;;;;;74.57;38.05;;;;;;;;;;5021256;28;20545;-65
2021/03/02 18:59:05;;;;;;;76.57;38.10;;;;;;;;;;5021654;28;20035;-65
2021/03/02 19:01:32;;;;;;;81.03;37.83;;;;;;;;;;5021496;28;20156;-65
2021/03/02 19:03:58;;;;;;;74.30;39.97;;;;;;;;;;5015485;28;20040;-66
2021/03/02 19:06:24;;;;;;;76.55;38.78;;;;;;;;;;5031934;28;20036;-65
2021/03/02 19:08:50;;;;;;;84.07;42.40;;;;;;;;;;5024260;28;20116;-65
2021/03/02 19:11:16;;;;;;;84.57;43.60;;;;;;;;;;5016783;28;20025;-65
2021/03/02 19:13:42;;;;;;;91.90;45.33;;;;;;;;;;5032632;28;20021;-67
2021/03/02 19:16:08;;;;;;;101.18;46.78;;;;;;;;;;5032801;28;20033;-65
2021/03/02 19:18:37;;;;;;;93.68;45.92;;;;;;;;;;5030991;28;20018;-64
2021/03/02 19:21:04;;;;;;;94.93;46.75;;;;;;;;;;5033171;28;20104;-65
2021/03/02 19:23:31;;;;;;;100.90;51.15;;;;;;;;;;5032542;28;20450;-66
2021/03/02 19:25:57;;;;;;;101.28;50.13;;;;;;;;;;5033826;28;20018;-66
2021/03/02 19:28:24;;;;;;;97.75;48.03;;;;;;;;;;5032078;28;20388;-67
2021/03/02 19:30:50;;;;;;;103.57;49.60;;;;;;;;;;5032125;28;20034;-67
2021/03/02 19:33:16;;;;;;;91.25;46.42;;;;;;;;;;5033331;28;20018;-66
2021/03/02 19:35:42;;;;;;;91.70;46.33;;;;;;;;;;5033502;28;20032;-67
2021/03/02 19:38:08;;;;;;;88.47;44.15;;;;;;;;;;5033649;28;20133;-66
2021/03/02 19:40:34;;;;;;;87.30;44.60;;;;;;;;;;5019556;28;20037;-65
2021/03/02 19:43:00;;;;;;;81.32;43.53;;;;;;;;;;5013885;28;20025;-65
2021/03/02 19:45:26;;;;;;;82.63;42.47;;;;;;;;;;5013630;28;20032;-67
2021/03/02 19:47:53;;;;;;;90.97;43.50;;;;;;;;;;5014177;28;20052;-65
2021/03/02 19:50:19;;;;;;;92.47;45.05;;;;;;;;;;5033491;28;20034;-65
2021/03/02 19:52:45;;;;;;;95.68;46.28;;;;;;;;;;5033236;28;20035;-66
2021/03/02 19:55:12;;;;;;;116.15;52.33;;;;;;;;;;5033077;28;20377;-66
2021/03/02 19:57:40;;;;;;;98.05;48.65;;;;;;;;;;5033815;28;20067;-68
2021/03/02 20:00:07;;;;;;;107.47;51.17;;;;;;;;;;5033158;28;20022;-68
2021/03/02 20:02:33;;;;;;;102.40;49.63;;;;;;;;;;5033656;28;20028;-67
2021/03/02 20:04:59;;;;;;;109.75;52.03;;;;;;;;;;5033170;28;20538;-66
2021/03/02 20:07:25;;;;;;;145.48;67.25;;;;;;;;;;5032839;28;20420;-66
2021/03/02 20:09:52;;;;;;;148.75;71.03;;;;;;;;;;5033346;28;20357;-66
2021/03/02 20:12:18;;;;;;;131.05;64.45;;;;;;;;;;5032824;28;20534;-66
2021/03/02 20:14:45;;;;;;;132.18;63.60;;;;;;;;;;5033103;28;20479;-67
2021/03/02 20:17:14;;;;;;;138.88;65.18;;;;;;;;;;5033323;28;20041;-66
2021/03/02 20:19:41;;;;;;;128.27;61.83;;;;;;;;;;5032763;28;20112;-67
2021/03/02 20:22:08;;;;;;;134.93;63.47;;;;;;;;;;5033302;28;20030;-65
2021/03/02 20:24:34;;;;;;;124.40;61.17;;;;;;;;;;5018009;28;20052;-68
2021/03/02 20:27:00;;;;;;;131.90;61.10;;;;;;;;;;5013545;28;20030;-65
2021/03/02 20:29:26;;;;;;;131.52;62.38;;;;;;;;;;5024939;28;20046;-66
2021/03/02 20:31:52;;;;;;;129.30;61.97;;;;;;;;;;5033455;28;20037;-65
2021/03/02 20:34:19;;;;;;;130.30;62.40;;;;;;;;;;5020694;28;20037;-71
2021/03/02 20:36:45;;;;;;;133.15;62.60;;;;;;;;;;4996516;28;20029;-65
2021/03/02 20:39:11;;;;;;;134.70;63.30;;;;;;;;;;5022141;28;20027;-65
2021/03/02 20:41:37;;;;;;;119.00;57.13;;;;;;;;;;5020379;28;20028;-68
2021/03/02 20:44:03;;;;;;;122.20;57.58;;;;;;;;;;5023268;28;20010;-66
2021/03/02 20:46:29;;;;;;;121.00;58.08;;;;;;;;;;5021048;28;20026;-65
2021/03/02 20:48:55;;;;;;;113.88;56.83;;;;;;;;;;5025150;28;20061;-66
2021/03/02 20:51:23;;;;;;;113.30;53.60;;;;;;;;;;5022526;28;20022;-68
2021/03/02 20:53:49;;;;;;;111.22;53.30;;;;;;;;;;5025069;28;20028;-66
2021/03/02 20:56:16;;;;;;;117.07;55.15;;;;;;;;;;5029220;28;20042;-66
2021/03/02 20:58:42;;;;;;;111.32;54.22;;;;;;;;;;5025458;28;20519;-66
2021/03/02 21:01:08;;;;;;;113.53;54.70;;;;;;;;;;5026964;28;20104;-64
2021/03/02 21:03:34;;;;;;;109.20;53.35;;;;;;;;;;5024847;28;20053;-67
2021/03/02 21:06:00;;;;;;;104.68;50.30;;;;;;;;;;5025397;28;20068;-66
2021/03/02 21:08:26;;;;;;;99.22;49.42;;;;;;;;;;5026347;28;20022;-63
2021/03/02 21:10:52;;;;;;;95.82;47.58;;;;;;;;;;5026729;28;20107;-64
2021/03/02 21:13:18;;;;;;;99.72;49.05;;;;;;;;;;5025591;28;20018;-65
2021/03/02 21:15:45;;;;;;;97.97;48.22;;;;;;;;;;5024646;28;20147;-65